| time (UTC) | temp C | wind direction | speed KPH | gust KPH | rain 1hr cm | rain 24hr cm | rain mn cm | humidity % | barometer mb |
| 20260510070032 | 11 | 79 | 0.0 | 3.2 | 0.00 | 0.15 | 0.00 | 76 | 1001.3 |
| 20260510064525 | 11 | 62 | 0.0 | 6.4 | 0.00 | 0.15 | 0.00 | 77 | 1001.3 |
| 20260510063023 | 11 | 41 | 0.0 | 3.2 | 0.00 | 0.15 | 0.00 | 80 | 1001.3 |
| 20260510061521 | 11 | 340 | 0.0 | 3.2 | 0.00 | 0.15 | 0.00 | 81 | 1001.3 |
| 20260510060020 | 11 | 54 | 0.0 | 4.8 | 0.00 | 0.15 | 0.00 | 80 | 1001.3 |
| 20260510054519 | 11 | 68 | 0.0 | 3.2 | 0.00 | 0.15 | 0.00 | 80 | 1001.3 |
| 20260510053018 | 11 | 343 | 0.0 | 1.6 | 0.00 | 0.15 | 0.00 | 81 | 1001.3 |
| 20260510051516 | 12 | 349 | 0.0 | 4.8 | 0.00 | 0.15 | 0.00 | 81 | 1001.3 |
| 20260510050013 | 12 | 337 | 1.6 | 6.4 | 0.00 | 0.15 | 0.00 | 82 | 1001.3 |
| 20260510044512 | 12 | 355 | 12.9 | 19.3 | 0.00 | 0.15 | 0.00 | 83 | 1001.3 |
| 20260510043008 | 14 | 326 | 11.3 | 16.1 | 0.00 | 0.15 | 0.00 | 85 | 1001.3 |
| 20260510041501 | 15 | 293 | 3.2 | 6.4 | 0.00 | 0.15 | 0.00 | 81 | 1001.3 |
| 20260510040059 | 15 | 300 | 1.6 | 4.8 | 0.00 | 0.15 | 0.00 | 79 | 1001.3 |
| 20260510034557 | 15 | 115 | 0.0 | 4.8 | 0.00 | 0.15 | 0.15 | 79 | 1001.3 |
| 20260510033120 | 15 | 128 | 1.6 | 4.8 | 0.00 | 0.15 | 0.15 | 79 | 1001.3 |
| 20260510031619 | 15 | 111 | 1.6 | 9.7 | 0.00 | 0.15 | 0.15 | 78 | 1001.3 |
| 20260510030054 | 15 | 96 | 4.8 | 12.9 | 0.00 | 0.15 | 0.15 | 77 | 1001.3 |
| 20260510024555 | 15 | 243 | 1.6 | 9.7 | 0.00 | 0.15 | 0.15 | 77 | 1001.3 |
| 20260510023053 | 15 | 171 | 1.6 | 11.3 | 0.00 | 0.15 | 0.15 | 78 | 1001.3 |
| 20260510021552 | 15 | 231 | 0.0 | 9.7 | 0.00 | 0.15 | 0.15 | 81 | 1001.3 |
| 20260510020052 | 15 | 135 | 1.6 | 11.3 | 0.00 | 0.15 | 0.15 | 82 | 1001.3 |
| 20260510014605 | 15 | 213 | 3.2 | 16.1 | 0.00 | 0.15 | 0.15 | 82 | 1001.3 |
| 20260510013050 | 15 | 204 | 3.2 | 12.9 | 0.00 | 0.15 | 0.15 | 84 | 1001.3 |
| 20260510011557 | 14 | 266 | 4.8 | 14.5 | 0.00 | 0.15 | 0.15 | 86 | 1001.3 |
| 20260510010100 | 13 | 141 | 4.8 | 14.5 | 0.00 | 0.15 | 0.15 | 91 | 1001.3 |
| 20260510004555 | 13 | 252 | 1.6 | 12.9 | 0.00 | 0.28 | 0.15 | 97 | 1001.3 |
| 20260510003057 | 13 | 202 | 6.4 | 19.3 | 0.00 | 0.28 | 0.15 | 97 | 1001.3 |
| 20260510001547 | 13 | 203 | 4.8 | 14.5 | 0.00 | 0.28 | 0.15 | 97 | 1001.3 |
| 20260510000052 | 13 | 135 | 4.8 | 14.5 | 0.00 | 0.28 | 0.15 | 97 | 1001.3 |
| 20260509234646 | 12 | 195 | 8.0 | 17.7 | 0.08 | 0.28 | 0.15 | 98 | 1001.3 |
| 20260509233045 | 12 | 180 | 3.2 | 22.5 | 0.15 | 0.28 | 0.15 | 97 | 1001.3 |
| 20260509231545 | 12 | 117 | 3.2 | 8.0 | 0.15 | 0.28 | 0.15 | 97 | 1001.3 |
| 20260509230044 | 12 | 245 | 1.6 | 11.3 | 0.15 | 0.28 | 0.15 | 97 | 1001.3 |
| 20260509224542 | 11 | 295 | 16.1 | 24.1 | 0.08 | 0.20 | 0.08 | 96 | 1001.3 |
| 20260509223047 | 12 | 295 | 30.6 | 49.9 | 0.00 | 0.13 | 0.00 | 91 | 1001.3 |
| 20260509221540 | 21 | 135 | 6.4 | 22.5 | 0.00 | 0.13 | 0.00 | 55 | 1001.3 |
| 20260509220053 | 21 | 216 | 8.0 | 24.1 | 0.00 | 0.13 | 0.00 | 54 | 1001.3 |
| 20260509214541 | 21 | 223 | 9.7 | 25.7 | 0.00 | 0.13 | 0.00 | 54 | 1001.3 |
| 20260509213040 | 21 | 235 | 6.4 | 25.7 | 0.00 | 0.13 | 0.00 | 56 | 1001.3 |
| 20260509211542 | 21 | 122 | 3.2 | 17.7 | 0.00 | 0.13 | 0.00 | 56 | 1001.3 |
| 20260509210035 | 21 | 229 | 4.8 | 22.5 | 0.00 | 0.13 | 0.00 | 55 | 1001.3 |
| 20260509204542 | 21 | 244 | 6.4 | 20.9 | 0.00 | 0.13 | 0.00 | 56 | 1001.3 |
| 20260509203036 | 21 | 91 | 4.8 | 24.1 | 0.00 | 0.13 | 0.00 | 56 | 1001.3 |
| 20260509201532 | 21 | 245 | 6.4 | 20.9 | 0.00 | 0.13 | 0.00 | 58 | 1001.3 |
| 20260509200038 | 21 | 217 | 6.4 | 19.3 | 0.00 | 0.13 | 0.00 | 56 | 1001.3 |
| 20260509194539 | 21 | 229 | 11.3 | 24.1 | 0.00 | 0.13 | 0.00 | 56 | 1001.3 |
| 20260509193037 | 21 | 222 | 8.0 | 16.1 | 0.00 | 0.13 | 0.00 | 56 | 1001.3 |
| 20260509191527 | 20 | 221 | 8.0 | 20.9 | 0.00 | 0.13 | 0.00 | 58 | 1001.3 |
| 20260509190028 | 21 | 215 | 6.4 | 19.3 | 0.00 | 0.13 | 0.00 | 56 | 1001.3 |
| 20260509184532 | 20 | 92 | 4.8 | 16.1 | 0.00 | 0.13 | 0.00 | 58 | 1001.3 |
| 20260509183029 | 20 | 143 | 6.4 | 20.9 | 0.00 | 0.13 | 0.00 | 58 | 1001.3 |
| 20260509181522 | 20 | 235 | 6.4 | 19.3 | 0.00 | 0.13 | 0.00 | 60 | 1001.3 |
| 20260509180017 | 17 | 268 | 1.6 | 8.0 | 0.00 | 0.13 | 0.00 | 77 | 1001.3 |
| 20260509174513 | 16 | 229 | 1.6 | 6.4 | 0.00 | 0.13 | 0.00 | 79 | 1001.3 |
| 20260509173012 | 16 | 274 | 1.6 | 6.4 | 0.00 | 0.13 | 0.00 | 79 | 1001.3 |
| 20260509171513 | 15 | 284 | 1.6 | 4.8 | 0.00 | 0.13 | 0.00 | 83 | 1001.3 |
| 20260509170011 | 15 | 296 | 1.6 | 4.8 | 0.00 | 0.13 | 0.00 | 84 | 1001.3 |
| 20260509164510 | 15 | 292 | 1.6 | 4.8 | 0.00 | 0.13 | 0.00 | 85 | 1001.3 |
| 20260509163017 | 16 | 295 | 4.8 | 6.4 | 0.00 | 0.13 | 0.00 | 79 | 1001.3 |
| 20260509161507 | 15 | 195 | 1.6 | 9.7 | 0.00 | 0.13 | 0.00 | 85 | 1001.3 |
| 20260509160004 | 14 | 288 | 1.6 | 4.8 | 0.00 | 0.13 | 0.00 | 88 | 1001.3 |
| 20260509154503 | 14 | 295 | 1.6 | 3.2 | 0.00 | 0.13 | 0.00 | 88 | 1001.3 |
| 20260509153007 | 13 | 287 | 0.0 | 4.8 | 0.00 | 0.13 | 0.00 | 88 | 1001.3 |
| 20260509151503 | 13 | 290 | 0.0 | 3.2 | 0.00 | 0.13 | 0.00 | 89 | 1001.3 |
| 20260509150001 | 14 | 280 | 3.2 | 6.4 | 0.00 | 0.13 | 0.00 | 88 | 1001.3 |
| 20260509144504 | 14 | 273 | 1.6 | 8.0 | 0.00 | 0.13 | 0.00 | 87 | 1001.3 |
| 20260509143102 | 14 | 244 | 1.6 | 6.4 | 0.00 | 0.13 | 0.00 | 87 | 1001.3 |
| 20260509141559 | 15 | 276 | 1.6 | 11.3 | 0.00 | 0.13 | 0.00 | 86 | 1001.3 |
| 20260509140113 | 14 | 273 | 1.6 | 9.7 | 0.00 | 0.13 | 0.00 | 86 | 1001.3 |
| 20260509134556 | 14 | 237 | 0.0 | 9.7 | 0.00 | 0.13 | 0.00 | 86 | 1001.3 |
| 20260509133101 | 13 | 98 | 1.6 | 6.4 | 0.00 | 0.13 | 0.00 | 87 | 1001.3 |
| 20260509131558 | 13 | 206 | 3.2 | 9.7 | 0.00 | 0.13 | 0.00 | 88 | 1001.3 |
| 20260509130101 | 13 | 134 | 3.2 | 12.9 | 0.00 | 0.13 | 0.00 | 88 | 1001.3 |
| 20260509124557 | 13 | 243 | 1.6 | 9.7 | 0.00 | 0.13 | 0.00 | 89 | 1001.3 |
| 20260509123049 | 13 | 236 | 1.6 | 9.7 | 0.00 | 0.13 | 0.00 | 90 | 1001.3 |
| 20260509121559 | 12 | 141 | 1.6 | 8.0 | 0.00 | 0.13 | 0.00 | 90 | 1001.3 |
| 20260509120045 | 12 | 227 | 1.6 | 8.0 | 0.00 | 0.13 | 0.00 | 91 | 1001.3 |
| 20260509114545 | 12 | 120 | 0.0 | 4.8 | 0.00 | 0.13 | 0.00 | 92 | 1001.3 |
| 20260509113050 | 12 | 122 | 0.0 | 4.8 | 0.00 | 0.13 | 0.00 | 92 | 1001.3 |
| 20260509111542 | 12 | 125 | 0.0 | 3.2 | 0.00 | 0.13 | 0.00 | 92 | 1001.3 |
| 20260509110041 | 12 | 110 | 0.0 | 6.4 | 0.00 | 0.13 | 0.00 | 92 | 1001.3 |
| 20260509104541 | 12 | 114 | 0.0 | 6.4 | 0.00 | 0.13 | 0.00 | 92 | 1001.3 |
| 20260509103040 | 12 | 120 | 0.0 | 3.2 | 0.00 | 0.13 | 0.00 | 92 | 1001.3 |
| 20260509101543 | 12 | 111 | 0.0 | 4.8 | 0.00 | 0.13 | 0.00 | 92 | 1001.3 |
| 20260509100039 | 11 | 119 | 0.0 | 3.2 | 0.00 | 0.13 | 0.00 | 92 | 1001.3 |
| 20260509094538 | 12 | 119 | 0.0 | 3.2 | 0.00 | 0.13 | 0.00 | 91 | 1001.3 |
| 20260509093038 | 12 | 108 | 0.0 | 1.6 | 0.00 | 0.13 | 0.00 | 91 | 1001.3 |
| 20260509091537 | 12 | 96 | 0.0 | 3.2 | 0.00 | 0.13 | 0.00 | 91 | 1001.3 |
| 20260509090039 | 12 | 238 | 0.0 | 4.8 | 0.00 | 0.13 | 0.00 | 90 | 1001.3 |
| 20260509084541 | 12 | 120 | 1.6 | 8.0 | 0.00 | 0.13 | 0.00 | 90 | 1001.3 |
| 20260509083046 | 12 | 245 | 0.0 | 8.0 | 0.00 | 0.13 | 0.00 | 90 | 1001.3 |
| 20260509081535 | 12 | 158 | 0.0 | 8.0 | 0.00 | 0.13 | 0.00 | 90 | 1001.3 |
| 20260509080034 | 12 | 183 | 1.6 | 8.0 | 0.00 | 0.13 | 0.00 | 90 | 1001.3 |
| 20260509074534 | 12 | 252 | 0.0 | 4.8 | 0.00 | 0.13 | 0.00 | 90 | 1001.3 |
| 20260509073034 | 12 | 176 | 0.0 | 8.0 | 0.00 | 0.13 | 0.00 | 90 | 1001.3 |
| 20260509071532 | 12 | 84 | 1.6 | 6.4 | 0.00 | 0.13 | 0.00 | 90 | 1001.3 |